createdAt,value
2019-04-22T00:03:37.770Z,7.00
2019-04-22T00:09:03.728Z,6.90
2019-04-22T00:14:09.515Z,6.80
2019-04-22T00:19:22.723Z,6.80
2019-04-22T00:24:25.566Z,6.70
2019-04-22T00:29:49.856Z,6.70
2019-04-22T00:34:42.711Z,6.70
2019-04-22T00:39:52.060Z,6.70
2019-04-22T00:45:08.041Z,6.70
2019-04-22T00:50:25.372Z,6.70
2019-04-22T00:55:23.083Z,6.80
2019-04-22T01:00:25.075Z,6.80
2019-04-22T01:05:34.490Z,6.70
2019-04-22T01:10:46.815Z,6.80
2019-04-22T01:15:47.831Z,6.80
2019-04-22T01:21:06.956Z,6.90
2019-04-22T01:25:59.618Z,6.90
2019-04-22T01:30:57.745Z,6.80
2019-04-22T01:36:13.991Z,6.80
2019-04-22T01:41:35.919Z,6.80
2019-04-22T01:46:40.359Z,6.70
2019-04-22T01:51:51.764Z,6.70
2019-04-22T01:56:53.853Z,6.70
2019-04-22T02:01:55.162Z,6.70
2019-04-22T02:07:12.529Z,6.60
2019-04-22T02:12:15.364Z,6.60
2019-04-22T02:17:26.654Z,6.60
2019-04-22T02:22:42.852Z,6.50
2019-04-22T02:27:38.966Z,6.50
2019-04-22T02:33:03.870Z,6.40
2019-04-22T02:37:54.472Z,6.20
2019-04-22T02:43:01.747Z,6.20
2019-04-22T02:48:18.869Z,6.20
2019-04-22T02:53:38.510Z,6.30
2019-04-22T02:58:44.975Z,6.30
2019-04-22T03:03:41.892Z,6.30
2019-04-22T03:08:45.672Z,6.20
2019-04-22T03:24:17.566Z,6.20
2019-04-22T03:29:11.362Z,6.20
2019-04-22T03:39:38.114Z,6.20
2019-04-22T03:44:40.203Z,6.20
2019-04-22T03:49:45.379Z,6.10
2019-04-22T03:55:00.738Z,6.00
2019-04-22T03:59:57.314Z,5.90
2019-04-22T04:04:58.757Z,6.00
2019-04-22T04:10:19.190Z,6.10
2019-04-22T04:15:21.150Z,6.20
2019-04-22T04:40:57.362Z,7.80
2019-04-22T04:46:06.469Z,8.70
2019-04-22T04:56:22.806Z,9.90
2019-04-22T05:01:31.243Z,10.30
2019-04-22T05:12:01.899Z,10.50
2019-04-22T05:16:47.678Z,9.60
2019-04-22T05:22:05.783Z,9.10
2019-04-22T05:27:08.665Z,8.50
2019-04-22T05:37:15.607Z,8.50
2019-04-22T05:42:20.268Z,8.60
2019-04-22T05:47:25.646Z,8.70
2019-04-22T05:52:34.444Z,9.10
2019-04-22T05:57:42.666Z,9.20
2019-04-22T06:08:02.425Z,9.70
2019-04-22T06:13:06.778Z,10.20
2019-04-22T06:18:25.572Z,10.40
2019-04-22T06:23:35.936Z,10.20
2019-04-22T06:33:53.230Z,10.20
2019-04-22T06:38:46.582Z,11.10
2019-04-22T06:44:04.397Z,11.30
2019-04-22T06:49:11.226Z,11.20
2019-04-22T06:54:14.070Z,11.00
2019-04-22T06:59:19.100Z,11.10
2019-04-22T07:04:27.955Z,11.10
2019-04-22T07:09:43.498Z,10.90
2019-04-22T07:14:44.553Z,10.80
2019-04-22T07:19:51.153Z,10.80
2019-04-22T07:24:58.556Z,11.20
2019-04-22T07:30:15.401Z,11.60
2019-04-22T07:35:16.891Z,11.80
2019-04-22T07:40:32.392Z,11.60
2019-04-22T07:50:50.754Z,11.90
2019-04-22T07:55:45.676Z,11.80
2019-04-22T08:00:57.765Z,11.80
2019-04-22T08:11:25.031Z,11.90
2019-04-22T08:16:19.945Z,11.70
2019-04-22T08:21:22.330Z,12.00
2019-04-22T08:26:33.516Z,12.10
2019-04-22T08:31:48.601Z,12.40
2019-04-22T08:37:22.682Z,12.60
2019-04-22T08:42:09.641Z,12.80
2019-04-22T08:47:11.086Z,13.20
2019-04-22T08:52:16.561Z,13.40
2019-04-22T08:57:31.631Z,13.30
2019-04-22T09:02:32.683Z,13.70
2019-04-22T09:07:38.169Z,14.00
2019-04-22T09:17:56.119Z,14.40
2019-04-22T09:23:03.736Z,14.80
2019-04-22T09:28:07.339Z,15.20
2019-04-22T09:33:28.953Z,15.20
2019-04-22T09:38:32.871Z,15.10
2019-04-22T09:43:31.612Z,15.10
2019-04-22T09:53:55.781Z,15.40
2019-04-22T10:04:00.999Z,15.90
2019-04-22T10:14:18.751Z,17.40
2019-04-22T10:19:23.232Z,17.20
2019-04-22T10:24:33.320Z,17.50
2019-04-22T10:29:52.262Z,17.50
2019-04-22T10:34:34.696Z,17.30
2019-04-22T10:39:43.848Z,17.40
2019-04-22T10:44:44.711Z,17.60
2019-04-22T10:49:50.336Z,17.80
2019-04-22T10:54:56.519Z,17.30
2019-04-22T11:00:02.896Z,17.00
2019-04-22T11:05:12.208Z,17.60
2019-04-22T11:10:35.374Z,17.80
2019-04-22T11:15:28.578Z,17.70
2019-04-22T11:20:35.770Z,17.50
2019-04-22T11:25:43.962Z,17.70
2019-04-22T11:30:50.390Z,17.80
2019-04-22T11:35:57.494Z,17.90
2019-04-22T11:41:05.314Z,17.70
2019-04-22T11:46:13.346Z,17.80
2019-04-22T11:51:20.480Z,17.90
2019-04-22T11:56:27.146Z,17.80
2019-04-22T12:01:34.823Z,17.90
2019-04-22T12:06:41.953Z,18.30
2019-04-22T12:11:49.411Z,18.60
2019-04-22T12:16:55.593Z,18.80
2019-04-22T12:22:02.901Z,18.50
2019-04-22T12:27:12.233Z,18.40
2019-04-22T12:32:18.223Z,18.50
2019-04-22T12:37:32.995Z,18.40
2019-04-22T12:42:33.148Z,18.30
2019-04-22T12:47:40.338Z,18.70
2019-04-22T12:52:55.584Z,19.20
2019-04-22T12:57:58.663Z,19.60
2019-04-22T13:03:03.264Z,19.50
2019-04-22T13:08:09.730Z,19.00
2019-04-22T13:13:15.922Z,19.00
2019-04-22T13:18:33.315Z,18.70
2019-04-22T13:23:29.855Z,18.30
2019-04-22T13:28:36.798Z,18.80
2019-04-22T13:33:43.183Z,19.10
2019-04-22T13:38:49.255Z,18.80
2019-04-22T13:43:56.081Z,19.00
2019-04-22T13:49:31.523Z,18.60
2019-04-22T13:59:26.724Z,18.50
2019-04-22T14:04:28.402Z,18.80
2019-04-22T14:09:35.962Z,18.80
2019-04-22T14:14:43.755Z,18.40
2019-04-22T14:19:50.674Z,18.50
2019-04-22T14:24:56.994Z,18.80
2019-04-22T14:30:04.251Z,18.70
2019-04-22T14:35:13.242Z,18.30
2019-04-22T14:40:22.341Z,18.70
2019-04-22T14:46:04.017Z,19.40
2019-04-22T14:50:57.711Z,18.90
2019-04-22T14:55:44.354Z,18.40
2019-04-22T15:00:51.943Z,18.30
2019-04-22T15:05:58.057Z,18.70
2019-04-22T15:11:06.134Z,18.90
2019-04-22T15:16:29.831Z,19.30
2019-04-22T15:21:36.765Z,19.50
2019-04-22T15:26:42.778Z,19.30
2019-04-22T15:31:49.262Z,18.70
2019-04-22T15:36:55.997Z,18.60
2019-04-22T15:42:11.789Z,18.30
2019-04-22T15:47:11.021Z,18.10
2019-04-22T15:52:18.767Z,18.10
2019-04-22T15:57:25.060Z,18.20
2019-04-22T16:02:31.744Z,18.30
2019-04-22T16:07:38.020Z,18.40
2019-04-22T16:12:52.972Z,18.50
2019-04-22T16:17:52.949Z,18.10
2019-04-22T16:23:22.368Z,18.20
2019-04-22T16:28:29.346Z,18.10
2019-04-22T16:33:39.865Z,18.00
2019-04-22T16:38:44.912Z,17.90
2019-04-22T16:43:51.058Z,17.80
2019-04-22T16:48:57.932Z,17.80
2019-04-22T16:54:04.416Z,17.60
2019-04-22T16:59:10.799Z,17.50
2019-04-22T17:04:34.523Z,17.40
2019-04-22T17:09:41.678Z,17.20
2019-04-22T17:14:54.765Z,17.10
2019-04-22T17:19:55.576Z,17.10
2019-04-22T17:25:02.657Z,16.90
2019-04-22T17:30:10.576Z,16.80
2019-04-22T17:35:17.831Z,16.60
2019-04-22T17:40:38.905Z,16.60
2019-04-22T17:45:55.895Z,16.40
2019-04-22T17:51:10.497Z,16.30
2019-04-22T17:56:15.695Z,16.10
2019-04-22T18:01:28.066Z,15.90
2019-04-22T18:06:44.083Z,15.80
2019-04-22T18:11:53.427Z,15.70
2019-04-22T18:16:56.773Z,15.60
2019-04-22T18:21:53.339Z,15.40
2019-04-22T18:27:06.960Z,15.30
2019-04-22T18:32:05.662Z,15.20
2019-04-22T18:37:18.419Z,15.10
2019-04-22T18:42:23.909Z,15.00
2019-04-22T18:47:32.331Z,15.00
2019-04-22T18:52:54.207Z,14.90
2019-04-22T18:58:03.000Z,14.70
2019-04-22T19:03:01.967Z,14.60
2019-04-22T19:08:36.760Z,14.50
2019-04-22T19:18:41.822Z,14.10
2019-04-22T19:23:51.992Z,13.90
2019-04-22T19:28:55.579Z,13.70
2019-04-22T19:34:03.315Z,13.50
2019-04-22T19:39:10.362Z,13.30
2019-04-22T19:44:21.421Z,13.20
2019-04-22T19:54:38.781Z,13.20
2019-04-22T19:59:45.445Z,13.20
2019-04-22T20:05:05.848Z,13.40
2019-04-22T20:10:19.588Z,13.50
2019-04-22T20:15:18.248Z,13.50
2019-04-22T20:20:34.388Z,13.50
2019-04-22T20:25:34.853Z,13.50
2019-04-22T20:30:45.825Z,13.50
2019-04-22T20:35:56.602Z,13.40
2019-04-22T20:40:58.083Z,13.30
2019-04-22T20:46:11.390Z,13.30
2019-04-22T20:51:17.120Z,13.10
2019-04-22T20:56:25.155Z,12.90
2019-04-22T21:01:33.506Z,12.60
2019-04-22T21:06:38.134Z,12.40
2019-04-22T21:11:45.048Z,12.30
2019-04-22T21:16:56.410Z,12.10
2019-04-22T21:22:12.863Z,12.00
2019-04-22T21:27:13.829Z,11.90
2019-04-22T21:32:22.063Z,11.70
2019-04-22T21:37:34.675Z,11.60
2019-04-22T21:42:45.463Z,11.50
2019-04-22T21:48:00.097Z,11.40
2019-04-22T21:53:03.585Z,11.30
2019-04-22T21:58:16.090Z,11.30
2019-04-22T22:03:27.954Z,11.20
2019-04-22T22:08:33.759Z,11.10
2019-04-22T22:13:34.863Z,11.10
2019-04-22T22:18:35.333Z,11.10
2019-04-22T22:23:52.033Z,11.00
2019-04-22T22:29:05.059Z,10.90
2019-04-22T22:34:09.732Z,10.80
2019-04-22T22:39:07.562Z,10.70
2019-04-22T22:44:08.899Z,10.60
2019-04-22T22:49:35.788Z,10.60
2019-04-22T22:54:42.072Z,10.50
2019-04-22T22:59:44.209Z,10.50
2019-04-22T23:04:55.859Z,10.40
2019-04-22T23:10:05.049Z,10.40
2019-04-22T23:15:04.769Z,10.40
2019-04-22T23:19:57.950Z,10.40
2019-04-22T23:25:40.054Z,10.40
2019-04-22T23:30:38.256Z,10.30
2019-04-22T23:35:56.042Z,10.10
2019-04-22T23:41:06.968Z,9.90
2019-04-22T23:46:14.794Z,9.80
2019-04-22T23:51:22.568Z,9.80
2019-04-22T23:56:29.430Z,9.70
